sensor_id;sensor_type;location;lat;lon;timestamp;P1;durP1;ratioP1;P2;durP2;ratioP2
81510;SDS011;70931;48.796;8.440;2023-06-22T00:02:19;10.45;;;6.90;;
81510;SDS011;70931;48.796;8.440;2023-06-22T00:04:45;11.80;;;7.80;;
81510;SDS011;70931;48.796;8.440;2023-06-22T00:07:12;10.10;;;7.30;;
81510;SDS011;70931;48.796;8.440;2023-06-22T00:09:39;10.77;;;7.30;;
81510;SDS011;70931;48.796;8.440;2023-06-22T00:12:05;13.57;;;7.50;;
81510;SDS011;70931;48.796;8.440;2023-06-22T00:14:32;10.70;;;6.80;;
81510;SDS011;70931;48.796;8.440;2023-06-22T00:16:59;10.70;;;7.63;;
81510;SDS011;70931;48.796;8.440;2023-06-22T00:19:25;10.48;;;7.40;;
81510;SDS011;70931;48.796;8.440;2023-06-22T00:21:52;11.93;;;7.43;;
81510;SDS011;70931;48.796;8.440;2023-06-22T00:24:19;10.00;;;6.22;;
81510;SDS011;70931;48.796;8.440;2023-06-22T00:26:49;11.18;;;6.97;;
81510;SDS011;70931;48.796;8.440;2023-06-22T00:29:16;9.77;;;6.30;;
81510;SDS011;70931;48.796;8.440;2023-06-22T00:31:44;11.40;;;6.13;;
81510;SDS011;70931;48.796;8.440;2023-06-22T00:34:11;11.30;;;5.93;;
81510;SDS011;70931;48.796;8.440;2023-06-22T00:36:37;10.68;;;6.72;;
81510;SDS011;70931;48.796;8.440;2023-06-22T00:39:07;11.10;;;6.53;;
81510;SDS011;70931;48.796;8.440;2023-06-22T00:41:35;10.85;;;6.47;;
81510;SDS011;70931;48.796;8.440;2023-06-22T00:44:03;10.85;;;6.55;;
81510;SDS011;70931;48.796;8.440;2023-06-22T00:46:30;9.02;;;5.90;;
81510;SDS011;70931;48.796;8.440;2023-06-22T00:48:58;10.55;;;6.53;;
81510;SDS011;70931;48.796;8.440;2023-06-22T00:51:27;10.80;;;6.85;;
81510;SDS011;70931;48.796;8.440;2023-06-22T00:53:54;9.07;;;5.85;;
81510;SDS011;70931;48.796;8.440;2023-06-22T00:56:20;9.63;;;5.60;;
81510;SDS011;70931;48.796;8.440;2023-06-22T00:58:51;11.80;;;6.82;;
81510;SDS011;70931;48.796;8.440;2023-06-22T01:01:19;9.63;;;6.10;;
81510;SDS011;70931;48.796;8.440;2023-06-22T01:03:50;10.38;;;6.60;;
81510;SDS011;70931;48.796;8.440;2023-06-22T01:06:19;10.55;;;6.68;;
81510;SDS011;70931;48.796;8.440;2023-06-22T01:08:57;9.70;;;6.07;;
81510;SDS011;70931;48.796;8.440;2023-06-22T01:11:36;12.25;;;6.35;;
81510;SDS011;70931;48.796;8.440;2023-06-22T01:14:10;9.70;;;5.75;;
81510;SDS011;70931;48.796;8.440;2023-06-22T01:16:44;9.52;;;5.70;;
81510;SDS011;70931;48.796;8.440;2023-06-22T01:21:55;10.20;;;5.60;;
81510;SDS011;70931;48.796;8.440;2023-06-22T01:24:33;9.65;;;5.50;;
81510;SDS011;70931;48.796;8.440;2023-06-22T01:30:16;8.70;;;5.70;;
81510;SDS011;70931;48.796;8.440;2023-06-22T01:32:44;10.05;;;6.28;;
81510;SDS011;70931;48.796;8.440;2023-06-22T01:35:13;9.27;;;5.60;;
81510;SDS011;70931;48.796;8.440;2023-06-22T01:37:41;9.85;;;6.00;;
81510;SDS011;70931;48.796;8.440;2023-06-22T01:40:08;12.00;;;5.72;;
81510;SDS011;70931;48.796;8.440;2023-06-22T01:42:36;8.35;;;5.40;;
81510;SDS011;70931;48.796;8.440;2023-06-22T01:45:06;9.20;;;5.95;;
81510;SDS011;70931;48.796;8.440;2023-06-22T01:47:33;10.88;;;6.05;;
81510;SDS011;70931;48.796;8.440;2023-06-22T01:52:28;9.90;;;5.88;;
81510;SDS011;70931;48.796;8.440;2023-06-22T01:54:55;9.23;;;5.57;;
81510;SDS011;70931;48.796;8.440;2023-06-22T01:57:24;10.48;;;6.57;;
81510;SDS011;70931;48.796;8.440;2023-06-22T02:00:01;10.75;;;6.93;;
81510;SDS011;70931;48.796;8.440;2023-06-22T02:02:53;11.27;;;6.57;;
81510;SDS011;70931;48.796;8.440;2023-06-22T02:05:34;10.07;;;6.38;;
81510;SDS011;70931;48.796;8.440;2023-06-22T02:08:17;9.60;;;5.95;;
81510;SDS011;70931;48.796;8.440;2023-06-22T02:10:48;10.77;;;6.20;;
81510;SDS011;70931;48.796;8.440;2023-06-22T02:13:16;10.18;;;6.45;;
81510;SDS011;70931;48.796;8.440;2023-06-22T02:15:43;10.25;;;6.40;;
81510;SDS011;70931;48.796;8.440;2023-06-22T02:18:11;13.35;;;6.65;;
81510;SDS011;70931;48.796;8.440;2023-06-22T02:23:06;10.32;;;6.38;;
81510;SDS011;70931;48.796;8.440;2023-06-22T02:25:34;11.88;;;7.43;;
81510;SDS011;70931;48.796;8.440;2023-06-22T02:28:02;10.35;;;6.28;;
81510;SDS011;70931;48.796;8.440;2023-06-22T02:30:30;9.25;;;5.97;;
81510;SDS011;70931;48.796;8.440;2023-06-22T02:32:58;11.10;;;6.20;;
81510;SDS011;70931;48.796;8.440;2023-06-22T02:35:27;8.88;;;6.28;;
81510;SDS011;70931;48.796;8.440;2023-06-22T02:37:58;12.70;;;5.88;;
81510;SDS011;70931;48.796;8.440;2023-06-22T02:40:26;12.15;;;6.88;;
81510;SDS011;70931;48.796;8.440;2023-06-22T02:42:55;10.82;;;5.97;;
81510;SDS011;70931;48.796;8.440;2023-06-22T02:45:24;9.02;;;6.03;;
81510;SDS011;70931;48.796;8.440;2023-06-22T02:47:51;10.27;;;6.30;;
81510;SDS011;70931;48.796;8.440;2023-06-22T02:50:18;11.15;;;6.65;;
81510;SDS011;70931;48.796;8.440;2023-06-22T02:52:44;12.82;;;7.18;;
81510;SDS011;70931;48.796;8.440;2023-06-22T02:55:11;9.85;;;6.38;;
81510;SDS011;70931;48.796;8.440;2023-06-22T02:57:37;11.27;;;7.45;;
81510;SDS011;70931;48.796;8.440;2023-06-22T03:00:10;11.00;;;7.05;;
81510;SDS011;70931;48.796;8.440;2023-06-22T03:02:45;10.80;;;6.30;;
81510;SDS011;70931;48.796;8.440;2023-06-22T03:05:16;10.48;;;6.32;;
81510;SDS011;70931;48.796;8.440;2023-06-22T03:10:12;9.73;;;5.93;;
81510;SDS011;70931;48.796;8.440;2023-06-22T03:12:40;12.02;;;7.13;;
81510;SDS011;70931;48.796;8.440;2023-06-22T03:15:12;9.30;;;6.05;;
81510;SDS011;70931;48.796;8.440;2023-06-22T03:17:39;8.98;;;5.70;;
81510;SDS011;70931;48.796;8.440;2023-06-22T03:20:07;11.88;;;6.80;;
81510;SDS011;70931;48.796;8.440;2023-06-22T03:22:37;10.27;;;6.63;;
81510;SDS011;70931;48.796;8.440;2023-06-22T03:25:04;11.65;;;7.40;;
81510;SDS011;70931;48.796;8.440;2023-06-22T03:27:41;10.52;;;7.07;;
81510;SDS011;70931;48.796;8.440;2023-06-22T03:30:10;10.20;;;6.32;;
81510;SDS011;70931;48.796;8.440;2023-06-22T03:32:38;10.38;;;6.97;;
81510;SDS011;70931;48.796;8.440;2023-06-22T03:35:05;11.10;;;7.38;;
81510;SDS011;70931;48.796;8.440;2023-06-22T03:37:34;11.75;;;7.43;;
81510;SDS011;70931;48.796;8.440;2023-06-22T03:40:01;10.55;;;6.93;;
81510;SDS011;70931;48.796;8.440;2023-06-22T03:42:33;11.75;;;6.68;;
81510;SDS011;70931;48.796;8.440;2023-06-22T03:45:01;10.40;;;7.05;;
81510;SDS011;70931;48.796;8.440;2023-06-22T03:47:29;10.38;;;6.68;;
81510;SDS011;70931;48.796;8.440;2023-06-22T03:49:57;12.23;;;6.95;;
81510;SDS011;70931;48.796;8.440;2023-06-22T03:52:23;10.68;;;7.47;;
81510;SDS011;70931;48.796;8.440;2023-06-22T03:54:51;10.35;;;7.20;;
81510;SDS011;70931;48.796;8.440;2023-06-22T03:57:18;11.35;;;6.70;;
81510;SDS011;70931;48.796;8.440;2023-06-22T03:59:44;12.18;;;6.78;;
81510;SDS011;70931;48.796;8.440;2023-06-22T04:02:11;11.02;;;6.68;;
81510;SDS011;70931;48.796;8.440;2023-06-22T04:04:37;11.50;;;7.60;;
81510;SDS011;70931;48.796;8.440;2023-06-22T04:07:05;11.95;;;6.47;;
81510;SDS011;70931;48.796;8.440;2023-06-22T04:09:32;11.35;;;6.93;;
81510;SDS011;70931;48.796;8.440;2023-06-22T04:11:58;12.25;;;7.07;;
81510;SDS011;70931;48.796;8.440;2023-06-22T04:14:25;12.15;;;6.75;;
81510;SDS011;70931;48.796;8.440;2023-06-22T04:16:51;11.05;;;6.88;;
81510;SDS011;70931;48.796;8.440;2023-06-22T04:19:18;9.80;;;6.30;;
81510;SDS011;70931;48.796;8.440;2023-06-22T04:21:45;10.70;;;7.00;;
81510;SDS011;70931;48.796;8.440;2023-06-22T04:24:11;11.52;;;7.03;;
81510;SDS011;70931;48.796;8.440;2023-06-22T04:26:38;11.68;;;7.97;;
81510;SDS011;70931;48.796;8.440;2023-06-22T04:29:04;11.45;;;7.32;;
81510;SDS011;70931;48.796;8.440;2023-06-22T04:31:34;11.45;;;7.68;;
81510;SDS011;70931;48.796;8.440;2023-06-22T04:34:04;14.40;;;7.18;;
81510;SDS011;70931;48.796;8.440;2023-06-22T04:36:39;10.82;;;7.10;;
81510;SDS011;70931;48.796;8.440;2023-06-22T04:39:07;13.13;;;6.88;;
81510;SDS011;70931;48.796;8.440;2023-06-22T04:41:36;11.82;;;6.40;;
81510;SDS011;70931;48.796;8.440;2023-06-22T04:44:11;11.18;;;7.35;;
81510;SDS011;70931;48.796;8.440;2023-06-22T04:46:53;12.93;;;7.00;;
81510;SDS011;70931;48.796;8.440;2023-06-22T04:49:26;12.57;;;6.82;;
81510;SDS011;70931;48.796;8.440;2023-06-22T04:52:00;11.35;;;7.47;;
81510;SDS011;70931;48.796;8.440;2023-06-22T04:54:28;10.27;;;6.45;;
81510;SDS011;70931;48.796;8.440;2023-06-22T04:56:55;9.57;;;6.32;;
81510;SDS011;70931;48.796;8.440;2023-06-22T04:59:26;11.38;;;6.60;;
81510;SDS011;70931;48.796;8.440;2023-06-22T05:01:54;11.45;;;7.03;;
81510;SDS011;70931;48.796;8.440;2023-06-22T05:04:22;9.20;;;5.50;;
81510;SDS011;70931;48.796;8.440;2023-06-22T05:06:53;11.40;;;6.53;;
81510;SDS011;70931;48.796;8.440;2023-06-22T05:09:20;11.52;;;6.70;;
81510;SDS011;70931;48.796;8.440;2023-06-22T05:11:47;8.43;;;5.68;;
81510;SDS011;70931;48.796;8.440;2023-06-22T05:14:14;9.68;;;5.68;;
81510;SDS011;70931;48.796;8.440;2023-06-22T05:16:41;10.63;;;5.10;;
81510;SDS011;70931;48.796;8.440;2023-06-22T05:19:08;9.85;;;5.78;;
81510;SDS011;70931;48.796;8.440;2023-06-22T05:21:35;8.80;;;4.70;;
81510;SDS011;70931;48.796;8.440;2023-06-22T05:24:02;9.98;;;5.07;;
81510;SDS011;70931;48.796;8.440;2023-06-22T05:26:29;9.23;;;5.35;;
81510;SDS011;70931;48.796;8.440;2023-06-22T05:28:59;10.25;;;4.90;;
81510;SDS011;70931;48.796;8.440;2023-06-22T05:31:27;7.18;;;4.30;;
81510;SDS011;70931;48.796;8.440;2023-06-22T05:33:54;10.18;;;4.80;;
81510;SDS011;70931;48.796;8.440;2023-06-22T05:36:21;8.77;;;4.53;;
81510;SDS011;70931;48.796;8.440;2023-06-22T05:38:51;8.75;;;4.05;;
81510;SDS011;70931;48.796;8.440;2023-06-22T05:41:18;8.20;;;4.53;;
81510;SDS011;70931;48.796;8.440;2023-06-22T05:43:45;9.80;;;4.72;;
81510;SDS011;70931;48.796;8.440;2023-06-22T05:46:12;9.93;;;4.45;;
81510;SDS011;70931;48.796;8.440;2023-06-22T05:48:39;8.43;;;4.68;;
81510;SDS011;70931;48.796;8.440;2023-06-22T05:51:05;8.32;;;4.72;;
81510;SDS011;70931;48.796;8.440;2023-06-22T05:53:32;8.70;;;4.13;;
81510;SDS011;70931;48.796;8.440;2023-06-22T05:55:58;9.43;;;4.70;;
81510;SDS011;70931;48.796;8.440;2023-06-22T05:58:25;9.85;;;4.47;;
81510;SDS011;70931;48.796;8.440;2023-06-22T06:00:51;8.88;;;4.45;;
81510;SDS011;70931;48.796;8.440;2023-06-22T06:03:18;8.18;;;4.60;;
81510;SDS011;70931;48.796;8.440;2023-06-22T06:05:45;9.25;;;4.63;;
81510;SDS011;70931;48.796;8.440;2023-06-22T06:08:11;8.55;;;4.70;;
81510;SDS011;70931;48.796;8.440;2023-06-22T06:10:38;10.55;;;4.65;;
81510;SDS011;70931;48.796;8.440;2023-06-22T06:13:05;8.50;;;4.35;;
81510;SDS011;70931;48.796;8.440;2023-06-22T06:15:32;8.52;;;4.20;;
81510;SDS011;70931;48.796;8.440;2023-06-22T06:18:00;9.45;;;4.70;;
81510;SDS011;70931;48.796;8.440;2023-06-22T06:20:28;9.00;;;3.85;;
81510;SDS011;70931;48.796;8.440;2023-06-22T06:22:54;7.22;;;4.10;;
81510;SDS011;70931;48.796;8.440;2023-06-22T06:25:22;7.53;;;4.43;;
81510;SDS011;70931;48.796;8.440;2023-06-22T06:27:49;9.40;;;4.25;;
81510;SDS011;70931;48.796;8.440;2023-06-22T06:30:17;9.77;;;4.47;;
81510;SDS011;70931;48.796;8.440;2023-06-22T06:32:46;9.77;;;4.60;;
81510;SDS011;70931;48.796;8.440;2023-06-22T06:35:14;8.73;;;3.75;;
81510;SDS011;70931;48.796;8.440;2023-06-22T06:37:45;7.70;;;3.90;;
81510;SDS011;70931;48.796;8.440;2023-06-22T06:40:14;7.72;;;3.92;;
81510;SDS011;70931;48.796;8.440;2023-06-22T06:42:42;8.73;;;4.22;;
81510;SDS011;70931;48.796;8.440;2023-06-22T06:45:16;8.00;;;3.60;;
81510;SDS011;70931;48.796;8.440;2023-06-22T06:47:43;7.72;;;3.83;;
81510;SDS011;70931;48.796;8.440;2023-06-22T06:50:10;9.40;;;4.72;;
81510;SDS011;70931;48.796;8.440;2023-06-22T06:52:37;9.95;;;4.22;;
81510;SDS011;70931;48.796;8.440;2023-06-22T06:55:05;8.07;;;4.20;;
81510;SDS011;70931;48.796;8.440;2023-06-22T06:57:35;8.75;;;4.40;;
81510;SDS011;70931;48.796;8.440;2023-06-22T07:00:05;7.90;;;4.15;;
81510;SDS011;70931;48.796;8.440;2023-06-22T07:02:36;7.88;;;3.78;;
81510;SDS011;70931;48.796;8.440;2023-06-22T07:05:02;9.25;;;4.75;;
81510;SDS011;70931;48.796;8.440;2023-06-22T07:07:30;8.00;;;3.95;;
81510;SDS011;70931;48.796;8.440;2023-06-22T07:09:57;12.02;;;5.10;;
81510;SDS011;70931;48.796;8.440;2023-06-22T07:12:24;12.00;;;5.32;;
81510;SDS011;70931;48.796;8.440;2023-06-22T07:14:51;11.57;;;4.50;;
81510;SDS011;70931;48.796;8.440;2023-06-22T07:17:18;9.77;;;3.80;;
81510;SDS011;70931;48.796;8.440;2023-06-22T07:19:45;8.20;;;4.13;;
81510;SDS011;70931;48.796;8.440;2023-06-22T07:22:12;7.97;;;3.83;;
81510;SDS011;70931;48.796;8.440;2023-06-22T07:24:38;11.15;;;5.00;;
81510;SDS011;70931;48.796;8.440;2023-06-22T07:27:05;11.23;;;4.60;;
81510;SDS011;70931;48.796;8.440;2023-06-22T07:29:33;10.65;;;5.07;;
81510;SDS011;70931;48.796;8.440;2023-06-22T07:31:59;10.63;;;5.30;;
81510;SDS011;70931;48.796;8.440;2023-06-22T07:34:27;10.27;;;4.70;;
81510;SDS011;70931;48.796;8.440;2023-06-22T07:36:53;11.07;;;5.03;;
81510;SDS011;70931;48.796;8.440;2023-06-22T07:39:20;9.77;;;4.70;;
81510;SDS011;70931;48.796;8.440;2023-06-22T07:41:52;10.10;;;5.10;;
81510;SDS011;70931;48.796;8.440;2023-06-22T07:44:19;10.10;;;4.68;;
81510;SDS011;70931;48.796;8.440;2023-06-22T07:46:46;9.93;;;5.18;;
81510;SDS011;70931;48.796;8.440;2023-06-22T07:49:12;9.07;;;4.78;;
81510;SDS011;70931;48.796;8.440;2023-06-22T07:51:39;11.25;;;4.90;;
81510;SDS011;70931;48.796;8.440;2023-06-22T07:54:05;11.65;;;5.43;;
81510;SDS011;70931;48.796;8.440;2023-06-22T07:56:33;13.82;;;5.18;;
81510;SDS011;70931;48.796;8.440;2023-06-22T07:58:59;11.27;;;5.10;;
81510;SDS011;70931;48.796;8.440;2023-06-22T08:03:53;10.98;;;5.05;;
81510;SDS011;70931;48.796;8.440;2023-06-22T08:06:20;11.65;;;5.00;;
81510;SDS011;70931;48.796;8.440;2023-06-22T08:08:47;9.48;;;5.05;;
81510;SDS011;70931;48.796;8.440;2023-06-22T08:11:15;9.82;;;4.78;;
81510;SDS011;70931;48.796;8.440;2023-06-22T08:13:41;10.13;;;5.18;;
81510;SDS011;70931;48.796;8.440;2023-06-22T08:16:08;8.80;;;5.00;;
81510;SDS011;70931;48.796;8.440;2023-06-22T08:18:34;10.85;;;4.70;;
81510;SDS011;70931;48.796;8.440;2023-06-22T08:21:01;11.00;;;5.03;;
81510;SDS011;70931;48.796;8.440;2023-06-22T08:23:28;9.00;;;4.45;;
81510;SDS011;70931;48.796;8.440;2023-06-22T08:25:55;12.38;;;5.45;;
81510;SDS011;70931;48.796;8.440;2023-06-22T08:28:22;9.20;;;5.38;;
81510;SDS011;70931;48.796;8.440;2023-06-22T08:30:48;8.55;;;4.70;;
81510;SDS011;70931;48.796;8.440;2023-06-22T08:33:15;9.68;;;4.82;;
81510;SDS011;70931;48.796;8.440;2023-06-22T08:35:45;9.95;;;4.60;;
81510;SDS011;70931;48.796;8.440;2023-06-22T08:38:11;12.23;;;5.10;;
81510;SDS011;70931;48.796;8.440;2023-06-22T08:40:41;9.57;;;5.00;;
81510;SDS011;70931;48.796;8.440;2023-06-22T08:43:08;10.10;;;5.35;;
81510;SDS011;70931;48.796;8.440;2023-06-22T08:45:34;10.13;;;5.65;;
81510;SDS011;70931;48.796;8.440;2023-06-22T08:48:01;10.30;;;5.35;;
81510;SDS011;70931;48.796;8.440;2023-06-22T08:50:28;10.70;;;5.55;;
81510;SDS011;70931;48.796;8.440;2023-06-22T08:52:55;9.43;;;5.90;;
81510;SDS011;70931;48.796;8.440;2023-06-22T08:55:22;12.68;;;5.32;;
81510;SDS011;70931;48.796;8.440;2023-06-22T08:57:49;11.00;;;6.05;;
81510;SDS011;70931;48.796;8.440;2023-06-22T09:00:16;9.65;;;5.15;;
81510;SDS011;70931;48.796;8.440;2023-06-22T09:02:44;9.68;;;5.15;;
81510;SDS011;70931;48.796;8.440;2023-06-22T09:07:37;10.00;;;5.32;;
81510;SDS011;70931;48.796;8.440;2023-06-22T09:10:05;9.55;;;5.47;;
81510;SDS011;70931;48.796;8.440;2023-06-22T09:12:32;10.15;;;5.50;;
81510;SDS011;70931;48.796;8.440;2023-06-22T09:14:59;11.63;;;5.88;;
81510;SDS011;70931;48.796;8.440;2023-06-22T09:17:27;10.20;;;6.32;;
81510;SDS011;70931;48.796;8.440;2023-06-22T09:19:53;9.02;;;5.38;;
81510;SDS011;70931;48.796;8.440;2023-06-22T09:22:20;9.93;;;5.75;;
81510;SDS011;70931;48.796;8.440;2023-06-22T09:24:47;10.00;;;5.40;;
81510;SDS011;70931;48.796;8.440;2023-06-22T09:27:14;8.57;;;5.20;;
81510;SDS011;70931;48.796;8.440;2023-06-22T09:29:40;10.25;;;5.95;;
81510;SDS011;70931;48.796;8.440;2023-06-22T09:32:07;10.13;;;6.07;;
81510;SDS011;70931;48.796;8.440;2023-06-22T09:34:33;9.90;;;6.15;;
81510;SDS011;70931;48.796;8.440;2023-06-22T09:37:00;9.27;;;5.63;;
81510;SDS011;70931;48.796;8.440;2023-06-22T09:39:27;9.43;;;5.70;;
81510;SDS011;70931;48.796;8.440;2023-06-22T09:41:53;10.77;;;5.63;;
81510;SDS011;70931;48.796;8.440;2023-06-22T09:44:20;11.13;;;6.22;;
81510;SDS011;70931;48.796;8.440;2023-06-22T09:46:47;9.35;;;5.82;;
81510;SDS011;70931;48.796;8.440;2023-06-22T09:49:13;10.65;;;6.40;;
81510;SDS011;70931;48.796;8.440;2023-06-22T09:51:40;10.30;;;5.78;;
81510;SDS011;70931;48.796;8.440;2023-06-22T09:54:06;10.18;;;6.32;;
81510;SDS011;70931;48.796;8.440;2023-06-22T09:56:33;10.52;;;5.97;;
81510;SDS011;70931;48.796;8.440;2023-06-22T09:59:00;9.85;;;6.07;;
81510;SDS011;70931;48.796;8.440;2023-06-22T10:01:35;11.05;;;6.18;;
81510;SDS011;70931;48.796;8.440;2023-06-22T10:04:02;10.55;;;6.60;;
81510;SDS011;70931;48.796;8.440;2023-06-22T10:06:28;9.88;;;6.53;;
81510;SDS011;70931;48.796;8.440;2023-06-22T10:08:55;9.15;;;5.95;;
81510;SDS011;70931;48.796;8.440;2023-06-22T10:11:22;8.25;;;5.65;;
81510;SDS011;70931;48.796;8.440;2023-06-22T10:13:55;10.98;;;6.20;;
81510;SDS011;70931;48.796;8.440;2023-06-22T10:16:23;9.05;;;6.40;;
81510;SDS011;70931;48.796;8.440;2023-06-22T10:18:53;10.60;;;6.60;;
81510;SDS011;70931;48.796;8.440;2023-06-22T10:21:19;9.65;;;6.38;;
81510;SDS011;70931;48.796;8.440;2023-06-22T10:23:46;12.98;;;5.70;;
81510;SDS011;70931;48.796;8.440;2023-06-22T10:26:12;9.93;;;5.82;;
81510;SDS011;70931;48.796;8.440;2023-06-22T10:28:39;10.57;;;6.07;;
81510;SDS011;70931;48.796;8.440;2023-06-22T10:31:05;11.65;;;6.47;;
81510;SDS011;70931;48.796;8.440;2023-06-22T10:33:32;11.00;;;6.40;;
81510;SDS011;70931;48.796;8.440;2023-06-22T10:35:59;10.68;;;6.75;;
81510;SDS011;70931;48.796;8.440;2023-06-22T10:38:25;8.93;;;5.68;;
81510;SDS011;70931;48.796;8.440;2023-06-22T10:40:52;9.25;;;5.82;;
81510;SDS011;70931;48.796;8.440;2023-06-22T10:43:18;9.70;;;6.63;;
81510;SDS011;70931;48.796;8.440;2023-06-22T10:45:46;9.93;;;6.70;;
81510;SDS011;70931;48.796;8.440;2023-06-22T10:48:12;12.00;;;6.60;;
81510;SDS011;70931;48.796;8.440;2023-06-22T10:50:39;9.70;;;6.68;;
81510;SDS011;70931;48.796;8.440;2023-06-22T10:53:05;10.82;;;6.80;;
81510;SDS011;70931;48.796;8.440;2023-06-22T10:55:32;10.35;;;7.00;;
81510;SDS011;70931;48.796;8.440;2023-06-22T10:58:05;12.23;;;7.50;;
81510;SDS011;70931;48.796;8.440;2023-06-22T11:00:33;10.32;;;7.07;;
81510;SDS011;70931;48.796;8.440;2023-06-22T11:03:00;11.52;;;6.80;;
81510;SDS011;70931;48.796;8.440;2023-06-22T11:05:26;10.13;;;6.25;;
81510;SDS011;70931;48.796;8.440;2023-06-22T11:07:53;11.65;;;6.78;;
81510;SDS011;70931;48.796;8.440;2023-06-22T11:10:19;11.43;;;6.15;;
81510;SDS011;70931;48.796;8.440;2023-06-22T11:12:46;11.80;;;6.75;;
81510;SDS011;70931;48.796;8.440;2023-06-22T11:15:12;11.02;;;6.63;;
81510;SDS011;70931;48.796;8.440;2023-06-22T11:17:39;10.35;;;7.40;;
81510;SDS011;70931;48.796;8.440;2023-06-22T11:20:06;9.77;;;6.32;;
81510;SDS011;70931;48.796;8.440;2023-06-22T11:22:40;11.93;;;7.25;;
81510;SDS011;70931;48.796;8.440;2023-06-22T11:25:07;10.50;;;6.35;;
81510;SDS011;70931;48.796;8.440;2023-06-22T11:27:34;12.25;;;6.25;;
81510;SDS011;70931;48.796;8.440;2023-06-22T11:30:01;12.20;;;6.47;;
81510;SDS011;70931;48.796;8.440;2023-06-22T11:32:28;9.75;;;6.63;;
81510;SDS011;70931;48.796;8.440;2023-06-22T11:34:54;10.63;;;6.97;;
81510;SDS011;70931;48.796;8.440;2023-06-22T11:37:21;10.15;;;6.32;;
81510;SDS011;70931;48.796;8.440;2023-06-22T11:39:47;12.63;;;6.78;;
81510;SDS011;70931;48.796;8.440;2023-06-22T11:42:18;10.57;;;6.32;;
81510;SDS011;70931;48.796;8.440;2023-06-22T11:44:44;9.23;;;6.47;;
81510;SDS011;70931;48.796;8.440;2023-06-22T11:47:11;10.07;;;6.78;;
81510;SDS011;70931;48.796;8.440;2023-06-22T11:49:38;10.30;;;6.63;;
81510;SDS011;70931;48.796;8.440;2023-06-22T11:52:04;9.88;;;6.50;;
81510;SDS011;70931;48.796;8.440;2023-06-22T11:54:31;9.75;;;6.20;;
81510;SDS011;70931;48.796;8.440;2023-06-22T11:56:58;10.90;;;6.55;;
81510;SDS011;70931;48.796;8.440;2023-06-22T11:59:24;11.40;;;7.00;;
81510;SDS011;70931;48.796;8.440;2023-06-22T12:01:51;9.57;;;6.22;;
81510;SDS011;70931;48.796;8.440;2023-06-22T12:04:18;11.00;;;6.72;;
81510;SDS011;70931;48.796;8.440;2023-06-22T12:06:44;9.48;;;6.90;;
81510;SDS011;70931;48.796;8.440;2023-06-22T12:09:11;10.38;;;7.05;;
81510;SDS011;70931;48.796;8.440;2023-06-22T12:11:39;9.30;;;6.85;;
81510;SDS011;70931;48.796;8.440;2023-06-22T12:14:06;10.55;;;6.88;;
81510;SDS011;70931;48.796;8.440;2023-06-22T12:16:32;11.85;;;7.85;;
81510;SDS011;70931;48.796;8.440;2023-06-22T12:18:59;11.20;;;7.35;;
81510;SDS011;70931;48.796;8.440;2023-06-22T12:21:26;10.70;;;6.95;;
81510;SDS011;70931;48.796;8.440;2023-06-22T12:23:53;10.65;;;7.32;;
81510;SDS011;70931;48.796;8.440;2023-06-22T12:26:20;11.95;;;7.75;;
81510;SDS011;70931;48.796;8.440;2023-06-22T12:28:47;10.27;;;7.18;;
81510;SDS011;70931;48.796;8.440;2023-06-22T12:31:14;10.38;;;7.55;;
81510;SDS011;70931;48.796;8.440;2023-06-22T12:33:41;10.65;;;7.25;;
81510;SDS011;70931;48.796;8.440;2023-06-22T12:36:08;12.88;;;6.50;;
81510;SDS011;70931;48.796;8.440;2023-06-22T12:38:34;11.25;;;6.78;;
81510;SDS011;70931;48.796;8.440;2023-06-22T12:41:01;9.30;;;6.57;;
81510;SDS011;70931;48.796;8.440;2023-06-22T12:43:28;11.48;;;7.20;;
81510;SDS011;70931;48.796;8.440;2023-06-22T12:45:55;11.45;;;6.80;;
81510;SDS011;70931;48.796;8.440;2023-06-22T12:48:22;10.85;;;6.50;;
81510;SDS011;70931;48.796;8.440;2023-06-22T12:50:49;10.45;;;6.90;;
81510;SDS011;70931;48.796;8.440;2023-06-22T12:53:15;10.65;;;6.90;;
81510;SDS011;70931;48.796;8.440;2023-06-22T12:55:42;13.05;;;7.60;;
81510;SDS011;70931;48.796;8.440;2023-06-22T12:58:08;10.52;;;6.82;;
81510;SDS011;70931;48.796;8.440;2023-06-22T13:00:35;12.20;;;7.30;;
81510;SDS011;70931;48.796;8.440;2023-06-22T13:03:02;10.07;;;7.20;;
81510;SDS011;70931;48.796;8.440;2023-06-22T13:05:29;9.77;;;6.93;;
81510;SDS011;70931;48.796;8.440;2023-06-22T13:07:57;11.02;;;6.95;;
81510;SDS011;70931;48.796;8.440;2023-06-22T13:10:23;11.65;;;7.47;;
81510;SDS011;70931;48.796;8.440;2023-06-22T13:12:50;10.90;;;7.60;;
81510;SDS011;70931;48.796;8.440;2023-06-22T13:15:18;16.58;;;7.78;;
81510;SDS011;70931;48.796;8.440;2023-06-22T13:17:45;12.80;;;7.22;;
81510;SDS011;70931;48.796;8.440;2023-06-22T13:20:11;11.88;;;6.97;;
81510;SDS011;70931;48.796;8.440;2023-06-22T13:22:38;12.18;;;7.13;;
81510;SDS011;70931;48.796;8.440;2023-06-22T13:25:09;9.82;;;7.10;;
81510;SDS011;70931;48.796;8.440;2023-06-22T13:27:40;10.02;;;7.00;;
81510;SDS011;70931;48.796;8.440;2023-06-22T13:30:07;12.07;;;7.18;;
81510;SDS011;70931;48.796;8.440;2023-06-22T13:32:36;12.45;;;6.47;;
81510;SDS011;70931;48.796;8.440;2023-06-22T13:35:03;11.50;;;7.20;;
81510;SDS011;70931;48.796;8.440;2023-06-22T13:37:30;13.63;;;6.97;;
81510;SDS011;70931;48.796;8.440;2023-06-22T13:39:57;14.30;;;6.75;;
81510;SDS011;70931;48.796;8.440;2023-06-22T13:42:25;12.85;;;6.40;;
81510;SDS011;70931;48.796;8.440;2023-06-22T13:44:52;10.68;;;6.10;;
81510;SDS011;70931;48.796;8.440;2023-06-22T13:47:18;11.73;;;7.07;;
81510;SDS011;70931;48.796;8.440;2023-06-22T13:49:45;10.52;;;6.20;;
81510;SDS011;70931;48.796;8.440;2023-06-22T13:52:12;11.77;;;7.00;;
81510;SDS011;70931;48.796;8.440;2023-06-22T13:54:39;13.18;;;6.45;;
81510;SDS011;70931;48.796;8.440;2023-06-22T13:57:05;10.73;;;5.93;;
81510;SDS011;70931;48.796;8.440;2023-06-22T13:59:32;11.00;;;6.63;;
81510;SDS011;70931;48.796;8.440;2023-06-22T14:01:59;11.90;;;6.63;;
81510;SDS011;70931;48.796;8.440;2023-06-22T14:04:26;10.88;;;6.75;;
81510;SDS011;70931;48.796;8.440;2023-06-22T14:06:52;15.85;;;7.57;;
81510;SDS011;70931;48.796;8.440;2023-06-22T14:09:20;11.95;;;7.55;;
81510;SDS011;70931;48.796;8.440;2023-06-22T14:11:47;12.30;;;7.97;;
81510;SDS011;70931;48.796;8.440;2023-06-22T14:14:13;12.48;;;7.82;;
81510;SDS011;70931;48.796;8.440;2023-06-22T14:16:40;13.07;;;7.65;;
81510;SDS011;70931;48.796;8.440;2023-06-22T14:19:06;11.02;;;7.63;;
81510;SDS011;70931;48.796;8.440;2023-06-22T14:21:33;13.25;;;7.78;;
81510;SDS011;70931;48.796;8.440;2023-06-22T14:24:00;12.32;;;8.15;;
81510;SDS011;70931;48.796;8.440;2023-06-22T14:26:26;10.98;;;7.95;;
81510;SDS011;70931;48.796;8.440;2023-06-22T14:28:53;12.25;;;7.57;;
81510;SDS011;70931;48.796;8.440;2023-06-22T14:31:19;14.05;;;7.43;;
81510;SDS011;70931;48.796;8.440;2023-06-22T14:33:47;12.63;;;7.07;;
81510;SDS011;70931;48.796;8.440;2023-06-22T14:36:15;12.63;;;7.80;;
81510;SDS011;70931;48.796;8.440;2023-06-22T14:41:09;14.27;;;7.97;;
81510;SDS011;70931;48.796;8.440;2023-06-22T14:43:42;15.13;;;8.32;;
81510;SDS011;70931;48.796;8.440;2023-06-22T14:46:10;12.48;;;7.85;;
81510;SDS011;70931;48.796;8.440;2023-06-22T14:48:36;13.25;;;7.75;;
81510;SDS011;70931;48.796;8.440;2023-06-22T14:51:03;9.93;;;7.10;;
81510;SDS011;70931;48.796;8.440;2023-06-22T14:53:29;12.55;;;8.25;;
81510;SDS011;70931;48.796;8.440;2023-06-22T14:55:56;13.20;;;7.45;;
81510;SDS011;70931;48.796;8.440;2023-06-22T14:58:23;10.98;;;7.05;;
81510;SDS011;70931;48.796;8.440;2023-06-22T15:00:49;11.18;;;7.35;;
81510;SDS011;70931;48.796;8.440;2023-06-22T15:03:16;14.00;;;7.35;;